sensor_id;sensor_type;location;lat;lon;timestamp;temperature;humidity
5808;DHT22;2930;42.678;23.312;2022-12-18T00:00:44;7.70;94.40
5808;DHT22;2930;42.678;23.312;2022-12-18T00:03:10;7.50;94.10
5808;DHT22;2930;42.678;23.312;2022-12-18T00:05:36;7.40;94.40
5808;DHT22;2930;42.678;23.312;2022-12-18T00:08:02;7.40;94.50
5808;DHT22;2930;42.678;23.312;2022-12-18T00:10:28;7.40;94.60
5808;DHT22;2930;42.678;23.312;2022-12-18T00:12:54;7.30;94.60
5808;DHT22;2930;42.678;23.312;2022-12-18T00:15:20;7.20;94.60
5808;DHT22;2930;42.678;23.312;2022-12-18T00:17:46;7.20;94.70
5808;DHT22;2930;42.678;23.312;2022-12-18T00:20:11;7.10;95.00
5808;DHT22;2930;42.678;23.312;2022-12-18T00:22:37;7.10;94.90
5808;DHT22;2930;42.678;23.312;2022-12-18T00:25:03;7.10;94.90
5808;DHT22;2930;42.678;23.312;2022-12-18T00:27:29;7.10;94.90
5808;DHT22;2930;42.678;23.312;2022-12-18T00:29:54;7.10;95.00
5808;DHT22;2930;42.678;23.312;2022-12-18T00:32:20;7.00;94.80
5808;DHT22;2930;42.678;23.312;2022-12-18T00:34:46;7.00;94.90
5808;DHT22;2930;42.678;23.312;2022-12-18T00:37:11;6.90;94.80
5808;DHT22;2930;42.678;23.312;2022-12-18T00:39:37;6.90;94.90
5808;DHT22;2930;42.678;23.312;2022-12-18T00:42:02;6.90;94.80
5808;DHT22;2930;42.678;23.312;2022-12-18T00:44:47;6.90;94.90
5808;DHT22;2930;42.678;23.312;2022-12-18T00:47:12;6.90;94.70
5808;DHT22;2930;42.678;23.312;2022-12-18T00:49:38;6.80;94.80
5808;DHT22;2930;42.678;23.312;2022-12-18T00:52:03;6.70;94.60
5808;DHT22;2930;42.678;23.312;2022-12-18T00:54:29;6.70;94.80
5808;DHT22;2930;42.678;23.312;2022-12-18T00:56:55;6.70;94.70
5808;DHT22;2930;42.678;23.312;2022-12-18T00:59:21;6.80;94.60
5808;DHT22;2930;42.678;23.312;2022-12-18T01:01:47;6.70;94.40
5808;DHT22;2930;42.678;23.312;2022-12-18T01:04:13;6.60;94.60
5808;DHT22;2930;42.678;23.312;2022-12-18T01:06:39;6.60;94.70
5808;DHT22;2930;42.678;23.312;2022-12-18T01:09:05;6.60;94.60
5808;DHT22;2930;42.678;23.312;2022-12-18T01:11:31;6.60;94.70
5808;DHT22;2930;42.678;23.312;2022-12-18T01:13:56;6.50;94.70
5808;DHT22;2930;42.678;23.312;2022-12-18T01:16:22;6.40;94.80
5808;DHT22;2930;42.678;23.312;2022-12-18T01:18:51;6.30;94.70
5808;DHT22;2930;42.678;23.312;2022-12-18T01:21:17;6.20;94.90
5808;DHT22;2930;42.678;23.312;2022-12-18T01:23:43;6.10;94.90
5808;DHT22;2930;42.678;23.312;2022-12-18T01:26:11;6.10;95.00
5808;DHT22;2930;42.678;23.312;2022-12-18T01:28:37;6.20;94.80
5808;DHT22;2930;42.678;23.312;2022-12-18T01:31:27;6.20;94.80
5808;DHT22;2930;42.678;23.312;2022-12-18T01:33:53;6.10;94.70
5808;DHT22;2930;42.678;23.312;2022-12-18T01:36:26;6.10;94.80
5808;DHT22;2930;42.678;23.312;2022-12-18T01:38:52;6.20;94.50
5808;DHT22;2930;42.678;23.312;2022-12-18T01:41:22;6.10;94.60
5808;DHT22;2930;42.678;23.312;2022-12-18T01:43:50;6.20;94.30
5808;DHT22;2930;42.678;23.312;2022-12-18T01:46:17;6.10;94.60
5808;DHT22;2930;42.678;23.312;2022-12-18T01:48:45;6.10;94.60
5808;DHT22;2930;42.678;23.312;2022-12-18T01:51:12;6.10;94.70
5808;DHT22;2930;42.678;23.312;2022-12-18T01:53:42;6.20;94.60
5808;DHT22;2930;42.678;23.312;2022-12-18T01:56:15;6.10;94.60
5808;DHT22;2930;42.678;23.312;2022-12-18T02:01:22;6.20;94.50
5808;DHT22;2930;42.678;23.312;2022-12-18T02:03:48;6.10;94.40
5808;DHT22;2930;42.678;23.312;2022-12-18T02:06:33;6.10;94.10
5808;DHT22;2930;42.678;23.312;2022-12-18T02:09:18;6.00;94.50
5808;DHT22;2930;42.678;23.312;2022-12-18T02:15:23;6.10;94.20
5808;DHT22;2930;42.678;23.312;2022-12-18T02:17:52;6.10;94.20
5808;DHT22;2930;42.678;23.312;2022-12-18T02:26:18;6.10;94.10
5808;DHT22;2930;42.678;23.312;2022-12-18T02:28:51;6.10;94.00
5808;DHT22;2930;42.678;23.312;2022-12-18T02:31:22;6.10;94.00
5808;DHT22;2930;42.678;23.312;2022-12-18T02:33:49;6.10;93.90
5808;DHT22;2930;42.678;23.312;2022-12-18T02:36:17;6.10;93.80
5808;DHT22;2930;42.678;23.312;2022-12-18T02:38:44;6.20;93.80
5808;DHT22;2930;42.678;23.312;2022-12-18T02:41:11;6.10;93.70
5808;DHT22;2930;42.678;23.312;2022-12-18T02:43:38;6.10;93.70
5808;DHT22;2930;42.678;23.312;2022-12-18T02:46:34;6.10;93.40
5808;DHT22;2930;42.678;23.312;2022-12-18T02:49:09;6.00;93.50
5808;DHT22;2930;42.678;23.312;2022-12-18T02:57:53;5.90;94.00
5808;DHT22;2930;42.678;23.312;2022-12-18T03:00:22;5.90;94.00
5808;DHT22;2930;42.678;23.312;2022-12-18T03:03:02;5.80;94.10
5808;DHT22;2930;42.678;23.312;2022-12-18T03:05:33;5.90;94.00
5808;DHT22;2930;42.678;23.312;2022-12-18T03:08:17;5.80;94.10
5808;DHT22;2930;42.678;23.312;2022-12-18T03:11:06;5.80;94.20
5808;DHT22;2930;42.678;23.312;2022-12-18T03:16:17;5.70;94.20
5808;DHT22;2930;42.678;23.312;2022-12-18T03:18:52;5.60;94.40
5808;DHT22;2930;42.678;23.312;2022-12-18T03:21:23;5.60;94.50
5808;DHT22;2930;42.678;23.312;2022-12-18T03:23:52;5.60;94.40
5808;DHT22;2930;42.678;23.312;2022-12-18T03:26:22;5.50;94.60
5808;DHT22;2930;42.678;23.312;2022-12-18T03:28:52;5.50;94.50
5808;DHT22;2930;42.678;23.312;2022-12-18T03:31:20;5.50;94.60
5808;DHT22;2930;42.678;23.312;2022-12-18T03:33:58;5.50;94.60
5808;DHT22;2930;42.678;23.312;2022-12-18T03:36:25;5.50;94.50
5808;DHT22;2930;42.678;23.312;2022-12-18T03:38:51;5.50;94.40
5808;DHT22;2930;42.678;23.312;2022-12-18T03:49:23;5.30;94.70
5808;DHT22;2930;42.678;23.312;2022-12-18T03:52:04;5.30;94.60
5808;DHT22;2930;42.678;23.312;2022-12-18T03:54:31;5.30;94.60
5808;DHT22;2930;42.678;23.312;2022-12-18T03:57:10;5.40;94.60
5808;DHT22;2930;42.678;23.312;2022-12-18T03:59:37;5.30;94.40
5808;DHT22;2930;42.678;23.312;2022-12-18T04:02:04;5.40;94.50
5808;DHT22;2930;42.678;23.312;2022-12-18T04:04:32;5.40;94.20
5808;DHT22;2930;42.678;23.312;2022-12-18T04:06:58;5.30;94.30
5808;DHT22;2930;42.678;23.312;2022-12-18T04:09:24;5.30;94.30
5808;DHT22;2930;42.678;23.312;2022-12-18T04:11:51;5.30;94.20
5808;DHT22;2930;42.678;23.312;2022-12-18T04:14:17;5.40;93.90
5808;DHT22;2930;42.678;23.312;2022-12-18T04:16:43;5.30;93.80
5808;DHT22;2930;42.678;23.312;2022-12-18T04:19:09;5.20;93.60
5808;DHT22;2930;42.678;23.312;2022-12-18T04:21:34;5.10;93.90
5808;DHT22;2930;42.678;23.312;2022-12-18T04:24:00;5.20;93.70
5808;DHT22;2930;42.678;23.312;2022-12-18T04:26:25;5.10;93.50
5808;DHT22;2930;42.678;23.312;2022-12-18T04:28:51;5.20;93.70
5808;DHT22;2930;42.678;23.312;2022-12-18T04:31:17;5.10;93.70
5808;DHT22;2930;42.678;23.312;2022-12-18T04:33:42;5.10;93.90
5808;DHT22;2930;42.678;23.312;2022-12-18T04:36:08;5.10;93.50
5808;DHT22;2930;42.678;23.312;2022-12-18T04:38:34;5.10;93.50
5808;DHT22;2930;42.678;23.312;2022-12-18T04:40:59;5.10;93.20
5808;DHT22;2930;42.678;23.312;2022-12-18T04:43:25;5.10;93.00
5808;DHT22;2930;42.678;23.312;2022-12-18T04:45:51;5.00;92.90
5808;DHT22;2930;42.678;23.312;2022-12-18T04:48:16;5.00;92.80
5808;DHT22;2930;42.678;23.312;2022-12-18T04:50:42;5.00;92.60
5808;DHT22;2930;42.678;23.312;2022-12-18T04:53:07;5.10;92.60
5808;DHT22;2930;42.678;23.312;2022-12-18T04:55:33;5.00;91.80
5808;DHT22;2930;42.678;23.312;2022-12-18T04:57:59;5.10;91.70
5808;DHT22;2930;42.678;23.312;2022-12-18T05:00:24;5.00;91.20
5808;DHT22;2930;42.678;23.312;2022-12-18T05:02:50;4.80;91.30
5808;DHT22;2930;42.678;23.312;2022-12-18T05:05:16;4.80;91.50
5808;DHT22;2930;42.678;23.312;2022-12-18T05:07:42;4.80;91.40
5808;DHT22;2930;42.678;23.312;2022-12-18T05:10:08;4.60;91.70
5808;DHT22;2930;42.678;23.312;2022-12-18T05:12:33;4.60;92.10
5808;DHT22;2930;42.678;23.312;2022-12-18T05:14:59;4.60;92.20
5808;DHT22;2930;42.678;23.312;2022-12-18T05:17:25;4.60;92.40
5808;DHT22;2930;42.678;23.312;2022-12-18T05:19:50;4.70;92.30
5808;DHT22;2930;42.678;23.312;2022-12-18T05:22:16;4.60;92.20
5808;DHT22;2930;42.678;23.312;2022-12-18T05:24:42;4.60;92.30
5808;DHT22;2930;42.678;23.312;2022-12-18T05:27:07;4.70;92.20
5808;DHT22;2930;42.678;23.312;2022-12-18T05:29:33;4.60;91.90
5808;DHT22;2930;42.678;23.312;2022-12-18T05:31:58;4.60;91.90
5808;DHT22;2930;42.678;23.312;2022-12-18T05:34:24;4.70;91.90
5808;DHT22;2930;42.678;23.312;2022-12-18T05:36:50;4.70;91.80
5808;DHT22;2930;42.678;23.312;2022-12-18T05:39:15;4.60;91.70
5808;DHT22;2930;42.678;23.312;2022-12-18T05:41:41;4.60;91.70
5808;DHT22;2930;42.678;23.312;2022-12-18T05:44:07;4.60;91.70
5808;DHT22;2930;42.678;23.312;2022-12-18T05:46:32;4.60;91.70
5808;DHT22;2930;42.678;23.312;2022-12-18T05:49:01;4.50;91.70
5808;DHT22;2930;42.678;23.312;2022-12-18T05:51:27;4.50;91.70
5808;DHT22;2930;42.678;23.312;2022-12-18T05:53:53;4.50;91.30
5808;DHT22;2930;42.678;23.312;2022-12-18T05:56:20;4.50;91.00
5808;DHT22;2930;42.678;23.312;2022-12-18T05:58:47;4.40;91.00
5808;DHT22;2930;42.678;23.312;2022-12-18T06:01:18;4.30;91.00
5808;DHT22;2930;42.678;23.312;2022-12-18T06:03:44;4.20;91.10
5808;DHT22;2930;42.678;23.312;2022-12-18T06:06:36;4.20;91.30
5808;DHT22;2930;42.678;23.312;2022-12-18T06:09:03;4.30;91.30
5808;DHT22;2930;42.678;23.312;2022-12-18T06:11:34;4.30;91.40
5808;DHT22;2930;42.678;23.312;2022-12-18T06:14:01;4.30;91.40
5808;DHT22;2930;42.678;23.312;2022-12-18T06:16:27;4.40;91.50
5808;DHT22;2930;42.678;23.312;2022-12-18T06:18:55;4.40;91.40
5808;DHT22;2930;42.678;23.312;2022-12-18T06:21:21;4.50;91.30
5808;DHT22;2930;42.678;23.312;2022-12-18T06:23:47;4.50;91.10
5808;DHT22;2930;42.678;23.312;2022-12-18T06:26:13;4.50;90.80
5808;DHT22;2930;42.678;23.312;2022-12-18T06:28:39;4.40;91.10
5808;DHT22;2930;42.678;23.312;2022-12-18T06:31:06;4.50;91.20
5808;DHT22;2930;42.678;23.312;2022-12-18T06:33:33;4.40;91.20
5808;DHT22;2930;42.678;23.312;2022-12-18T06:36:11;4.50;91.20
5808;DHT22;2930;42.678;23.312;2022-12-18T06:38:41;4.50;91.20
5808;DHT22;2930;42.678;23.312;2022-12-18T06:41:12;4.50;91.20
5808;DHT22;2930;42.678;23.312;2022-12-18T06:43:38;4.50;91.20
5808;DHT22;2930;42.678;23.312;2022-12-18T06:46:04;4.50;91.00
5808;DHT22;2930;42.678;23.312;2022-12-18T06:48:30;4.60;91.00
5808;DHT22;2930;42.678;23.312;2022-12-18T06:50:56;4.60;90.70
5808;DHT22;2930;42.678;23.312;2022-12-18T06:53:23;4.60;90.40
5808;DHT22;2930;42.678;23.312;2022-12-18T06:55:48;4.60;90.00
5808;DHT22;2930;42.678;23.312;2022-12-18T06:58:14;4.60;89.90
5808;DHT22;2930;42.678;23.312;2022-12-18T07:00:40;4.50;89.90
5808;DHT22;2930;42.678;23.312;2022-12-18T07:03:05;4.50;89.90
5808;DHT22;2930;42.678;23.312;2022-12-18T07:05:31;4.40;89.30
5808;DHT22;2930;42.678;23.312;2022-12-18T07:07:58;4.50;89.30
5808;DHT22;2930;42.678;23.312;2022-12-18T07:10:23;4.50;89.30
5808;DHT22;2930;42.678;23.312;2022-12-18T07:12:49;4.50;89.40
5808;DHT22;2930;42.678;23.312;2022-12-18T07:15:15;4.60;89.60
5808;DHT22;2930;42.678;23.312;2022-12-18T07:17:41;4.70;89.60
5808;DHT22;2930;42.678;23.312;2022-12-18T07:20:07;4.70;89.40
5808;DHT22;2930;42.678;23.312;2022-12-18T07:22:33;4.70;89.50
5808;DHT22;2930;42.678;23.312;2022-12-18T07:24:58;4.80;89.30
5808;DHT22;2930;42.678;23.312;2022-12-18T07:27:24;4.70;89.20
5808;DHT22;2930;42.678;23.312;2022-12-18T07:29:50;4.80;89.10
5808;DHT22;2930;42.678;23.312;2022-12-18T07:32:16;4.90;88.90
5808;DHT22;2930;42.678;23.312;2022-12-18T07:34:41;4.90;88.70
5808;DHT22;2930;42.678;23.312;2022-12-18T07:37:07;4.90;88.50
5808;DHT22;2930;42.678;23.312;2022-12-18T07:39:33;4.80;88.50
5808;DHT22;2930;42.678;23.312;2022-12-18T07:41:59;4.70;88.70
5808;DHT22;2930;42.678;23.312;2022-12-18T07:44:43;4.70;88.90
5808;DHT22;2930;42.678;23.312;2022-12-18T07:47:08;4.70;88.90
5808;DHT22;2930;42.678;23.312;2022-12-18T07:49:35;4.70;89.00
5808;DHT22;2930;42.678;23.312;2022-12-18T07:52:01;4.70;88.90
5808;DHT22;2930;42.678;23.312;2022-12-18T07:54:27;4.60;88.80
5808;DHT22;2930;42.678;23.312;2022-12-18T07:56:53;4.50;88.90
5808;DHT22;2930;42.678;23.312;2022-12-18T07:59:19;4.50;89.20
5808;DHT22;2930;42.678;23.312;2022-12-18T08:01:45;4.40;89.20
5808;DHT22;2930;42.678;23.312;2022-12-18T08:04:12;4.40;89.50
5808;DHT22;2930;42.678;23.312;2022-12-18T08:06:38;4.40;89.70
5808;DHT22;2930;42.678;23.312;2022-12-18T08:09:03;4.50;89.80
5808;DHT22;2930;42.678;23.312;2022-12-18T08:11:29;4.40;89.70
5808;DHT22;2930;42.678;23.312;2022-12-18T08:13:55;4.40;89.80
5808;DHT22;2930;42.678;23.312;2022-12-18T08:16:22;4.40;89.80
5808;DHT22;2930;42.678;23.312;2022-12-18T08:18:48;4.40;89.60
5808;DHT22;2930;42.678;23.312;2022-12-18T08:23:41;4.40;89.30
5808;DHT22;2930;42.678;23.312;2022-12-18T08:26:07;4.30;89.40
5808;DHT22;2930;42.678;23.312;2022-12-18T08:28:33;4.40;89.40
5808;DHT22;2930;42.678;23.312;2022-12-18T08:30:59;4.30;89.40
5808;DHT22;2930;42.678;23.312;2022-12-18T08:33:25;4.20;89.50
5808;DHT22;2930;42.678;23.312;2022-12-18T08:35:52;4.20;89.60
5808;DHT22;2930;42.678;23.312;2022-12-18T08:38:17;4.30;89.50
5808;DHT22;2930;42.678;23.312;2022-12-18T08:40:43;4.20;89.40
5808;DHT22;2930;42.678;23.312;2022-12-18T08:43:11;4.20;89.60
5808;DHT22;2930;42.678;23.312;2022-12-18T08:45:56;4.20;89.40
5808;DHT22;2930;42.678;23.312;2022-12-18T08:48:21;4.10;89.30
5808;DHT22;2930;42.678;23.312;2022-12-18T08:50:57;4.10;89.00
5808;DHT22;2930;42.678;23.312;2022-12-18T08:53:25;4.10;89.50
5808;DHT22;2930;42.678;23.312;2022-12-18T08:55:50;4.10;89.40
5808;DHT22;2930;42.678;23.312;2022-12-18T08:58:16;4.20;89.40
5808;DHT22;2930;42.678;23.312;2022-12-18T09:00:42;4.10;89.00
5808;DHT22;2930;42.678;23.312;2022-12-18T09:03:26;4.20;88.80
5808;DHT22;2930;42.678;23.312;2022-12-18T09:05:51;4.20;88.30
5808;DHT22;2930;42.678;23.312;2022-12-18T09:08:17;4.20;88.10
5808;DHT22;2930;42.678;23.312;2022-12-18T09:10:44;4.30;88.20
5808;DHT22;2930;42.678;23.312;2022-12-18T09:13:11;4.40;88.30
5808;DHT22;2930;42.678;23.312;2022-12-18T09:15:46;4.50;88.00
5808;DHT22;2930;42.678;23.312;2022-12-18T09:18:13;4.60;87.80
5808;DHT22;2930;42.678;23.312;2022-12-18T09:20:39;4.70;87.70
5808;DHT22;2930;42.678;23.312;2022-12-18T09:23:05;4.70;87.10
5808;DHT22;2930;42.678;23.312;2022-12-18T09:25:31;4.80;87.00
5808;DHT22;2930;42.678;23.312;2022-12-18T09:28:12;4.90;86.80
5808;DHT22;2930;42.678;23.312;2022-12-18T09:30:39;4.80;86.20
5808;DHT22;2930;42.678;23.312;2022-12-18T09:33:06;4.70;85.50
5808;DHT22;2930;42.678;23.312;2022-12-18T09:35:31;4.70;85.60
5808;DHT22;2930;42.678;23.312;2022-12-18T09:37:57;4.70;85.30
5808;DHT22;2930;42.678;23.312;2022-12-18T09:40:26;4.70;85.50
5808;DHT22;2930;42.678;23.312;2022-12-18T09:42:58;4.80;85.40
5808;DHT22;2930;42.678;23.312;2022-12-18T09:45:25;4.90;85.30
5808;DHT22;2930;42.678;23.312;2022-12-18T09:47:52;4.90;85.20
5808;DHT22;2930;42.678;23.312;2022-12-18T09:50:35;5.00;85.20
5808;DHT22;2930;42.678;23.312;2022-12-18T09:53:13;5.00;84.50
5808;DHT22;2930;42.678;23.312;2022-12-18T09:55:46;5.00;84.40
5808;DHT22;2930;42.678;23.312;2022-12-18T10:00:57;5.20;84.80
5808;DHT22;2930;42.678;23.312;2022-12-18T10:03:23;5.20;84.30
5808;DHT22;2930;42.678;23.312;2022-12-18T10:08:48;5.20;84.30
5808;DHT22;2930;42.678;23.312;2022-12-18T10:14:14;5.20;83.40
5808;DHT22;2930;42.678;23.312;2022-12-18T10:20:02;5.40;83.40
5808;DHT22;2930;42.678;23.312;2022-12-18T10:28:14;5.50;82.80
5808;DHT22;2930;42.678;23.312;2022-12-18T10:30:42;5.60;83.00
5808;DHT22;2930;42.678;23.312;2022-12-18T10:33:17;5.60;82.70
5808;DHT22;2930;42.678;23.312;2022-12-18T10:35:44;5.50;82.00
5808;DHT22;2930;42.678;23.312;2022-12-18T10:40:59;5.50;82.80
5808;DHT22;2930;42.678;23.312;2022-12-18T10:48:26;5.50;83.20
5808;DHT22;2930;42.678;23.312;2022-12-18T10:50:53;5.50;83.00
5808;DHT22;2930;42.678;23.312;2022-12-18T10:53:41;5.50;82.20
5808;DHT22;2930;42.678;23.312;2022-12-18T10:56:08;5.50;82.40
5808;DHT22;2930;42.678;23.312;2022-12-18T10:58:38;5.50;81.80
5808;DHT22;2930;42.678;23.312;2022-12-18T11:01:17;5.50;81.90
5808;DHT22;2930;42.678;23.312;2022-12-18T11:03:46;5.50;81.90
5808;DHT22;2930;42.678;23.312;2022-12-18T11:06:20;5.50;81.40
5808;DHT22;2930;42.678;23.312;2022-12-18T11:09:18;5.40;80.70
5808;DHT22;2930;42.678;23.312;2022-12-18T11:11:55;5.40;80.10
5808;DHT22;2930;42.678;23.312;2022-12-18T11:14:33;5.40;79.70
5808;DHT22;2930;42.678;23.312;2022-12-18T11:17:00;5.40;79.90
5808;DHT22;2930;42.678;23.312;2022-12-18T11:19:33;5.30;80.10
5808;DHT22;2930;42.678;23.312;2022-12-18T11:22:00;5.20;80.40
5808;DHT22;2930;42.678;23.312;2022-12-18T11:27:00;5.30;81.00
5808;DHT22;2930;42.678;23.312;2022-12-18T11:29:38;5.30;81.10
5808;DHT22;2930;42.678;23.312;2022-12-18T11:32:29;5.20;80.80
5808;DHT22;2930;42.678;23.312;2022-12-18T11:37:55;5.10;81.10
5808;DHT22;2930;42.678;23.312;2022-12-18T11:40:32;5.20;81.50
5808;DHT22;2930;42.678;23.312;2022-12-18T11:45:36;5.30;81.10
5808;DHT22;2930;42.678;23.312;2022-12-18T11:51:10;5.40;80.90
5808;DHT22;2930;42.678;23.312;2022-12-18T11:53:36;5.50;80.40
5808;DHT22;2930;42.678;23.312;2022-12-18T11:56:29;5.60;79.90
5808;DHT22;2930;42.678;23.312;2022-12-18T12:09:50;5.60;80.60
5808;DHT22;2930;42.678;23.312;2022-12-18T12:15:27;5.50;80.30
5808;DHT22;2930;42.678;23.312;2022-12-18T12:18:05;5.50;80.50
5808;DHT22;2930;42.678;23.312;2022-12-18T12:32:32;5.60;80.70
5808;DHT22;2930;42.678;23.312;2022-12-18T12:35:32;5.70;80.80
5808;DHT22;2930;42.678;23.312;2022-12-18T12:38:12;5.80;80.80
5808;DHT22;2930;42.678;23.312;2022-12-18T12:40:59;5.80;80.60
5808;DHT22;2930;42.678;23.312;2022-12-18T12:43:41;5.80;80.70
5808;DHT22;2930;42.678;23.312;2022-12-18T12:46:12;5.70;80.50
5808;DHT22;2930;42.678;23.312;2022-12-18T12:48:49;5.70;80.50
5808;DHT22;2930;42.678;23.312;2022-12-18T12:51:16;5.70;80.90
5808;DHT22;2930;42.678;23.312;2022-12-18T12:53:42;5.80;81.00
5808;DHT22;2930;42.678;23.312;2022-12-18T12:56:11;5.90;81.10
5808;DHT22;2930;42.678;23.312;2022-12-18T13:01:25;5.90;80.70
5808;DHT22;2930;42.678;23.312;2022-12-18T13:06:43;6.00;80.60
5808;DHT22;2930;42.678;23.312;2022-12-18T13:09:11;6.00;80.70
5808;DHT22;2930;42.678;23.312;2022-12-18T13:11:47;5.90;80.00
5808;DHT22;2930;42.678;23.312;2022-12-18T13:14:34;5.80;79.80
5808;DHT22;2930;42.678;23.312;2022-12-18T13:19:55;5.80;80.20
5808;DHT22;2930;42.678;23.312;2022-12-18T13:22:35;5.80;80.20
5808;DHT22;2930;42.678;23.312;2022-12-18T13:25:03;5.70;80.10
5808;DHT22;2930;42.678;23.312;2022-12-18T13:38:36;5.70;80.40
5808;DHT22;2930;42.678;23.312;2022-12-18T13:43:48;5.60;80.60
5808;DHT22;2930;42.678;23.312;2022-12-18T13:46:26;5.50;80.80
5808;DHT22;2930;42.678;23.312;2022-12-18T13:51:49;5.50;81.00
5808;DHT22;2930;42.678;23.312;2022-12-18T13:54:30;5.50;81.30
5808;DHT22;2930;42.678;23.312;2022-12-18T13:56:58;5.40;81.10
5808;DHT22;2930;42.678;23.312;2022-12-18T13:59:25;5.40;81.40
5808;DHT22;2930;42.678;23.312;2022-12-18T14:02:00;5.40;81.00
5808;DHT22;2930;42.678;23.312;2022-12-18T14:04:30;5.40;80.90
5808;DHT22;2930;42.678;23.312;2022-12-18T14:09:35;5.50;80.50
5808;DHT22;2930;42.678;23.312;2022-12-18T14:12:02;5.50;80.00
5808;DHT22;2930;42.678;23.312;2022-12-18T14:14:49;5.50;79.80
5808;DHT22;2930;42.678;23.312;2022-12-18T14:17:16;5.50;79.70
5808;DHT22;2930;42.678;23.312;2022-12-18T14:19:44;5.40;79.50
5808;DHT22;2930;42.678;23.312;2022-12-18T14:22:23;5.50;79.70
5808;DHT22;2930;42.678;23.312;2022-12-18T14:27:53;5.60;79.60
5808;DHT22;2930;42.678;23.312;2022-12-18T14:33:04;5.40;78.20
5808;DHT22;2930;42.678;23.312;2022-12-18T14:35:31;5.40;78.10
5808;DHT22;2930;42.678;23.312;2022-12-18T14:40:36;5.30;78.20
5808;DHT22;2930;42.678;23.312;2022-12-18T14:43:02;5.30;78.20
5808;DHT22;2930;42.678;23.312;2022-12-18T14:45:38;5.30;78.20
5808;DHT22;2930;42.678;23.312;2022-12-18T14:48:16;5.30;78.10
5808;DHT22;2930;42.678;23.312;2022-12-18T14:50:43;5.20;77.40
5808;DHT22;2930;42.678;23.312;2022-12-18T14:53:26;5.20;77.60
5808;DHT22;2930;42.678;23.312;2022-12-18T14:55:54;5.20;77.80
5808;DHT22;2930;42.678;23.312;2022-12-18T14:58:20;5.20;77.90
5808;DHT22;2930;42.678;23.312;2022-12-18T15:00:45;5.30;78.00
5808;DHT22;2930;42.678;23.312;2022-12-18T15:03:18;5.30;77.90
5808;DHT22;2930;42.678;23.312;2022-12-18T15:05:45;5.30;77.30
5808;DHT22;2930;42.678;23.312;2022-12-18T15:08:28;5.40;77.30
5808;DHT22;2930;42.678;23.312;2022-12-18T15:10:55;5.40;77.20
5808;DHT22;2930;42.678;23.312;2022-12-18T15:13:23;5.40;77.00
5808;DHT22;2930;42.678;23.312;2022-12-18T15:15:51;5.40;77.00
5808;DHT22;2930;42.678;23.312;2022-12-18T15:18:23;5.40;77.00
5808;DHT22;2930;42.678;23.312;2022-12-18T15:20:58;5.40;76.70
5808;DHT22;2930;42.678;23.312;2022-12-18T15:23:27;5.40;76.80
5808;DHT22;2930;42.678;23.312;2022-12-18T15:26:03;5.40;76.30
5808;DHT22;2930;42.678;23.312;2022-12-18T15:36:26;5.50;76.10
5808;DHT22;2930;42.678;23.312;2022-12-18T15:38:53;5.40;75.60
5808;DHT22;2930;42.678;23.312;2022-12-18T15:41:21;5.40;75.90
5808;DHT22;2930;42.678;23.312;2022-12-18T15:43:51;5.40;75.90
5808;DHT22;2930;42.678;23.312;2022-12-18T15:46:22;5.40;75.90
5808;DHT22;2930;42.678;23.312;2022-12-18T15:48:53;5.30;75.80
5808;DHT22;2930;42.678;23.312;2022-12-18T15:51:35;5.30;76.20
5808;DHT22;2930;42.678;23.312;2022-12-18T15:54:04;5.20;76.20
5808;DHT22;2930;42.678;23.312;2022-12-18T15:56:30;5.20;76.20
5808;DHT22;2930;42.678;23.312;2022-12-18T15:59:19;5.20;76.50
5808;DHT22;2930;42.678;23.312;2022-12-18T16:01:49;5.20;76.60
5808;DHT22;2930;42.678;23.312;2022-12-18T16:04:18;5.10;76.50
5808;DHT22;2930;42.678;23.312;2022-12-18T16:06:48;5.00;76.90
5808;DHT22;2930;42.678;23.312;2022-12-18T16:09:13;5.00;77.10
5808;DHT22;2930;42.678;23.312;2022-12-18T16:11:43;4.90;77.20
5808;DHT22;2930;42.678;23.312;2022-12-18T16:16:38;4.80;78.10
5808;DHT22;2930;42.678;23.312;2022-12-18T16:19:04;4.80;78.10
5808;DHT22;2930;42.678;23.312;2022-12-18T16:21:29;4.70;78.00
5808;DHT22;2930;42.678;23.312;2022-12-18T16:23:56;4.80;78.40
5808;DHT22;2930;42.678;23.312;2022-12-18T16:26:22;4.80;78.20
5808;DHT22;2930;42.678;23.312;2022-12-18T16:28:47;4.70;78.30
5808;DHT22;2930;42.678;23.312;2022-12-18T16:31:13;4.80;78.50
5808;DHT22;2930;42.678;23.312;2022-12-18T16:33:39;4.90;78.30
5808;DHT22;2930;42.678;23.312;2022-12-18T16:36:04;4.80;78.30
5808;DHT22;2930;42.678;23.312;2022-12-18T16:38:30;4.70;78.50
5808;DHT22;2930;42.678;23.312;2022-12-18T16:40:56;4.70;78.60
5808;DHT22;2930;42.678;23.312;2022-12-18T16:43:48;4.60;78.50
5808;DHT22;2930;42.678;23.312;2022-12-18T16:46:13;4.50;78.50
5808;DHT22;2930;42.678;23.312;2022-12-18T16:48:39;4.50;78.80
5808;DHT22;2930;42.678;23.312;2022-12-18T16:51:05;4.50;78.80
5808;DHT22;2930;42.678;23.312;2022-12-18T16:53:34;4.40;79.20
5808;DHT22;2930;42.678;23.312;2022-12-18T16:56:00;4.40;79.40
5808;DHT22;2930;42.678;23.312;2022-12-18T16:58:25;4.50;79.30
5808;DHT22;2930;42.678;23.312;2022-12-18T17:00:51;4.50;79.30
5808;DHT22;2930;42.678;23.312;2022-12-18T17:03:17;4.50;79.20
5808;DHT22;2930;42.678;23.312;2022-12-18T17:05:42;4.40;79.20
5808;DHT22;2930;42.678;23.312;2022-12-18T17:08:09;4.40;79.20
5808;DHT22;2930;42.678;23.312;2022-12-18T17:10:35;4.40;79.20
5808;DHT22;2930;42.678;23.312;2022-12-18T17:13:00;4.50;79.00
5808;DHT22;2930;42.678;23.312;2022-12-18T17:15:26;4.40;79.10
5808;DHT22;2930;42.678;23.312;2022-12-18T17:17:52;4.30;79.10
5808;DHT22;2930;42.678;23.312;2022-12-18T17:20:17;4.30;79.10
5808;DHT22;2930;42.678;23.312;2022-12-18T17:22:43;4.20;78.90
5808;DHT22;2930;42.678;23.312;2022-12-18T17:25:08;4.30;79.00
5808;DHT22;2930;42.678;23.312;2022-12-18T17:27:34;4.30;79.00
5808;DHT22;2930;42.678;23.312;2022-12-18T17:30:00;4.40;79.00
5808;DHT22;2930;42.678;23.312;2022-12-18T17:32:25;4.40;78.80
5808;DHT22;2930;42.678;23.312;2022-12-18T17:34:52;4.40;79.00
5808;DHT22;2930;42.678;23.312;2022-12-18T17:37:17;4.40;78.70
5808;DHT22;2930;42.678;23.312;2022-12-18T17:39:43;4.20;79.00
5808;DHT22;2930;42.678;23.312;2022-12-18T17:42:09;4.20;79.20
5808;DHT22;2930;42.678;23.312;2022-12-18T17:44:35;4.30;79.10
5808;DHT22;2930;42.678;23.312;2022-12-18T17:47:01;4.20;79.30
5808;DHT22;2930;42.678;23.312;2022-12-18T17:49:27;4.20;79.30
5808;DHT22;2930;42.678;23.312;2022-12-18T17:51:53;4.10;79.60
5808;DHT22;2930;42.678;23.312;2022-12-18T17:54:18;4.20;79.60
5808;DHT22;2930;42.678;23.312;2022-12-18T17:56:44;4.20;79.60
5808;DHT22;2930;42.678;23.312;2022-12-18T17:59:10;4.20;79.50
5808;DHT22;2930;42.678;23.312;2022-12-18T18:01:36;4.20;79.60
5808;DHT22;2930;42.678;23.312;2022-12-18T18:04:03;4.20;79.40
5808;DHT22;2930;42.678;23.312;2022-12-18T18:06:29;4.20;79.30
5808;DHT22;2930;42.678;23.312;2022-12-18T18:08:55;4.20;79.20
5808;DHT22;2930;42.678;23.312;2022-12-18T18:11:22;4.20;79.20
5808;DHT22;2930;42.678;23.312;2022-12-18T18:14:14;4.20;79.20
5808;DHT22;2930;42.678;23.312;2022-12-18T18:16:43;4.20;79.00
5808;DHT22;2930;42.678;23.312;2022-12-18T18:19:12;4.20;78.90
5808;DHT22;2930;42.678;23.312;2022-12-18T18:21:42;4.30;78.80
5808;DHT22;2930;42.678;23.312;2022-12-18T18:24:09;4.30;78.80
5808;DHT22;2930;42.678;23.312;2022-12-18T18:26:36;4.40;79.00
5808;DHT22;2930;42.678;23.312;2022-12-18T18:29:02;4.40;79.00
5808;DHT22;2930;42.678;23.312;2022-12-18T18:31:29;4.50;78.80
5808;DHT22;2930;42.678;23.312;2022-12-18T18:33:55;4.40;78.70